Time;durP1;ratioP1;P1;durP2;ratioP2;P2;SDS_P1;SDS_P2;PMS_P1;PMS_P2;Temp;Humidity;BMP_temperature;BMP_pressure;BME280_temperature;BME280_humidity;BME280_pressure;Samples;Min_cycle;Max_cycle;Signal;HPM_P1;HPM_P2
2022/06/15 00:01:00;;;;;;;1.85;1.02;;;;;;;10.76;93.18;99408.19;5033550;28;20132;-82
2022/06/15 00:03:28;;;;;;;3.13;1.45;;;;;;;10.74;93.04;99406.84;5050893;28;20039;-82
2022/06/15 00:06:25;;;;;;;2.17;1.75;;;;;;;10.71;93.03;99432.97;5022762;28;20415;-82
2022/06/15 00:08:53;;;;;;;7.20;2.40;;;;;;;10.67;93.44;99456.69;5026129;28;20107;-77
2022/06/15 00:11:21;;;;;;;4.47;2.28;;;;;;;10.63;94.26;99460.38;5050743;28;20041;-79
2022/06/15 00:13:47;;;;;;;4.72;2.20;;;;;;;10.58;94.37;99450.31;5020551;28;20519;-79
2022/06/15 00:16:13;;;;;;;5.03;1.90;;;;;;;10.55;93.62;99448.19;5048846;28;20068;-76
2022/06/15 00:18:39;;;;;;;3.97;1.92;;;;;;;10.52;94.22;99452.34;5048547;28;20136;-79
2022/06/15 00:21:06;;;;;;;4.50;1.70;;;;;;;10.49;94.71;99444.75;5016033;28;20591;-79
2022/06/15 00:23:34;;;;;;;6.47;2.10;;;;;;;10.49;94.22;99444.75;5049210;28;20069;-82
2022/06/15 00:25:59;;;;;;;3.65;1.58;;;;;;;10.48;94.32;99445.06;5044054;28;20052;-87
2022/06/15 00:28:26;;;;;;;4.55;2.10;;;;;;;10.46;94.31;99448.13;5042384;28;20045;-86
2022/06/15 00:30:53;;;;;;;4.25;1.48;;;;;;;10.44;94.82;99436.66;5019434;28;20048;-86
2022/06/15 00:33:19;;;;;;;2.42;1.77;;;;;;;10.44;94.61;99430.38;5042789;28;20044;-88
2022/06/15 00:35:58;;;;;;;2.25;1.90;;;;;;;10.42;94.60;99432.59;5033231;28;20411;-85
2022/06/15 00:38:51;;;;;;;6.10;2.03;;;;;;;10.41;95.07;99426.31;5036453;28;20043;-81
2022/06/15 00:41:26;;;;;;;3.80;1.90;;;;;;;10.47;94.96;99424.25;5031901;28;20662;-83
2022/06/15 00:43:55;;;;;;;2.15;1.17;;;;;;;10.50;95.74;99420.88;5032535;28;20044;-79
2022/06/15 00:46:29;;;;;;;3.55;1.80;;;;;;;10.51;95.89;99414.28;5021641;28;20069;-80
2022/06/15 00:49:10;;;;;;;1.67;1.38;;;;;;;10.52;96.36;99416.69;5032396;28;20068;-86
2022/06/15 00:51:37;;;;;;;1.42;1.20;;;;;;;10.54;96.01;99414.47;5033022;28;20041;-86
2022/06/15 00:54:03;;;;;;;3.70;1.90;;;;;;;10.61;96.46;99413.22;5021117;28;20190;-88
2022/06/15 00:56:30;;;;;;;2.50;1.70;;;;;;;10.61;96.40;99413.22;5046815;28;20041;-86
2022/06/15 00:58:59;;;;;;;4.13;2.22;;;;;;;10.63;96.39;99406.31;5021279;28;20049;-88
2022/06/15 01:01:25;;;;;;;;;;;;;;;10.61;96.21;99394.03;5025729;28;20124;-85
2022/06/15 01:03:52;;;;;;;1.52;1.02;;;;;;;10.60;96.22;99390.47;5027985;28;20008;-86
2022/06/15 01:07:06;;;;;;;3.40;1.48;;;;;;;10.63;96.47;99400.00;5023568;28;20530;-88
2022/06/15 01:09:36;;;;;;;2.45;1.92;;;;;;;10.64;96.66;99394.22;5039016;28;20041;-83
2022/06/15 01:12:24;;;;;;;1.98;1.50;;;;;;;10.64;97.44;99390.66;5041711;28;20168;-88
2022/06/15 01:14:56;;;;;;;2.10;1.70;;;;;;;10.67;97.20;99404.56;5027480;28;20529;-87
2022/06/15 01:17:38;;;;;;;1.33;0.68;;;;;;;10.69;97.23;99399.56;5051007;28;20041;-88
2022/06/15 01:20:26;;;;;;;3.53;1.65;;;;;;;10.71;96.90;99394.56;5015498;28;20090;-92
2022/06/15 01:23:18;;;;;;;2.83;1.60;;;;;;;10.71;96.50;99402.00;5019992;28;20124;-84
2022/06/15 01:25:54;;;;;;;5.15;1.88;;;;;;;10.73;96.54;99394.25;5006364;28;20077;-76
2022/06/15 01:28:43;;;;;;;4.60;1.35;;;;;;;10.74;97.20;99404.91;5014857;28;20045;-76
2022/06/15 01:31:37;;;;;;;1.23;0.98;;;;;;;10.73;96.91;99395.06;5017609;28;20077;-76
2022/06/15 01:34:22;;;;;;;2.97;1.58;;;;;;;10.68;96.65;99394.41;5016099;28;20041;-76
2022/06/15 01:36:56;;;;;;;1.55;1.45;;;;;;;10.66;97.41;99391.16;5032185;28;20037;-76
2022/06/15 01:39:28;;;;;;;1.90;1.60;;;;;;;10.66;97.49;99388.41;5044653;28;20044;-75
2022/06/15 01:41:58;;;;;;;2.08;1.52;;;;;;;10.67;97.07;99384.53;5013576;28;20041;-75
2022/06/15 01:44:31;;;;;;;2.38;1.60;;;;;;;10.69;96.52;99379.56;5011274;28;20042;-76
2022/06/15 01:47:01;;;;;;;2.00;1.60;;;;;;;10.69;97.00;99382.28;5016072;28;20620;-76
2022/06/15 01:49:30;;;;;;;2.47;1.65;;;;;;;10.69;96.87;99382.28;5010604;28;20652;-77
2022/06/15 01:51:59;;;;;;;2.17;1.73;;;;;;;10.71;96.72;99377.31;5026306;28;20095;-76
2022/06/15 01:54:26;;;;;;;2.53;1.67;;;;;;;10.70;96.44;99378.44;4999453;28;20030;-76
2022/06/15 01:56:54;;;;;;;3.55;2.03;;;;;;;10.72;96.53;99382.47;5032932;28;20397;-76
2022/06/15 01:59:35;;;;;;;1.83;1.45;;;;;;;10.71;96.82;99375.38;5023284;28;20064;-75
2022/06/15 02:02:19;;;;;;;2.95;1.38;;;;;;;10.72;97.37;99384.41;5029222;28;20037;-75
2022/06/15 02:04:54;;;;;;;1.70;1.60;;;;;;;10.72;96.73;99376.97;5032239;28;20128;-75
2022/06/15 02:07:23;;;;;;;3.75;1.88;;;;;;;10.75;97.21;99381.84;5030976;28;20064;-76
2022/06/15 02:09:51;;;;;;;4.38;1.70;;;;;;;10.78;97.23;99363.97;5019433;28;20043;-75
2022/06/15 02:12:25;;;;;;;1.50;1.02;;;;;;;10.80;97.09;99361.72;5032092;28;20103;-75
2022/06/15 02:14:54;;;;;;;2.92;1.45;;;;;;;10.80;96.67;99362.53;4986516;28;20132;-75
2022/06/15 02:17:27;;;;;;;2.25;1.48;;;;;;;10.82;97.30;99364.97;5009859;28;20497;-76
2022/06/15 02:19:57;;;;;;;3.55;1.85;;;;;;;10.83;97.04;99367.38;5016155;28;20740;-77
2022/06/15 02:22:28;;;;;;;3.28;1.30;;;;;;;10.83;97.09;99367.38;5012693;28;20103;-76
2022/06/15 02:24:56;;;;;;;3.78;1.38;;;;;;;10.81;96.58;99369.63;5030739;28;20442;-76
2022/06/15 02:27:25;;;;;;;2.10;1.27;;;;;;;10.81;97.15;99366.09;5031477;28;20037;-76
2022/06/15 02:29:57;;;;;;;2.80;1.70;;;;;;;10.82;97.16;99367.69;5002180;28;20673;-77
2022/06/15 02:32:24;;;;;;;3.75;2.67;;;;;;;10.78;97.12;99367.53;5012031;28;20040;-77
2022/06/15 02:34:50;;;;;;;4.63;2.20;;;;;;;10.78;96.91;99358.47;5020212;28;20041;-77
2022/06/15 02:37:16;;;;;;;2.30;2.08;;;;;;;10.80;97.09;99361.72;5027083;28;20048;-77
2022/06/15 02:39:42;;;;;;;2.90;1.67;;;;;;;10.81;96.46;99369.63;5017042;28;20049;-76
2022/06/15 02:42:24;;;;;;;5.10;2.15;;;;;;;10.81;96.75;99364.16;5014713;28;20091;-77
2022/06/15 02:44:59;;;;;;;2.55;1.80;;;;;;;10.82;96.39;99365.75;5013438;28;20132;-76
2022/06/15 02:47:29;;;;;;;2.92;1.85;;;;;;;10.81;96.27;99368.81;4999905;28;20088;-75
2022/06/15 02:49:55;;;;;;;3.83;1.73;;;;;;;10.79;96.31;99355.41;5005789;28;20049;-76
2022/06/15 02:52:26;;;;;;;2.57;1.73;;;;;;;10.82;96.78;99359.47;5012811;28;20045;-76
2022/06/15 02:54:54;;;;;;;2.22;1.85;;;;;;;10.80;96.56;99362.53;5005188;28;20037;-76
2022/06/15 02:57:24;;;;;;;3.15;1.15;;;;;;;10.79;96.00;99360.09;5031508;28;20053;-77
2022/06/15 02:59:50;;;;;;;4.55;1.67;;;;;;;10.80;96.82;99362.53;5016208;28;20059;-77
2022/06/15 03:02:20;;;;;;;3.72;1.50;;;;;;;10.81;96.60;99357.84;5017964;28;20033;-75
2022/06/15 03:04:48;;;;;;;2.22;1.05;;;;;;;10.81;96.59;99360.59;5019101;28;20114;-76
2022/06/15 03:07:15;;;;;;;2.15;1.92;;;;;;;10.82;96.69;99364.97;5025305;28;20041;-75
2022/06/15 03:09:41;;;;;;;2.10;1.75;;;;;;;10.79;95.90;99349.94;5013367;28;20044;-75
2022/06/15 03:12:10;;;;;;;2.90;1.92;;;;;;;10.77;96.30;99345.88;5002833;28;20052;-75
2022/06/15 03:14:37;;;;;;;2.13;1.92;;;;;;;10.74;96.27;99335.50;5005997;28;20056;-75
2022/06/15 03:17:08;;;;;;;1.50;1.40;;;;;;;10.77;96.35;99338.47;5035311;28;20068;-75
2022/06/15 03:19:56;;;;;;;3.13;2.17;;;;;;;10.85;96.90;99343.19;5029101;28;20056;-76
2022/06/15 03:22:22;;;;;;;2.83;1.55;;;;;;;10.91;96.63;99341.09;5017268;28;20045;-76
2022/06/15 03:24:52;;;;;;;4.78;1.40;;;;;;;10.91;96.16;99338.34;5017192;28;20043;-76
2022/06/15 03:27:18;;;;;;;2.42;2.22;;;;;;;10.92;96.69;99342.72;5018149;28;20048;-76
2022/06/15 03:29:47;;;;;;;4.00;2.00;;;;;;;11.00;96.63;99339.22;5035139;28;20123;-77
2022/06/15 03:32:15;;;;;;;2.03;1.75;;;;;;;11.06;96.80;99335.19;5016925;28;20041;-76
2022/06/15 03:35:00;;;;;;;2.60;1.90;;;;;;;11.17;96.18;99322.03;5009448;28;20546;-75
2022/06/15 03:37:28;;;;;;;4.30;1.90;;;;;;;11.23;95.90;99333.66;5021522;28;20041;-78
2022/06/15 03:40:08;;;;;;;3.60;1.90;;;;;;;11.30;95.79;99331.28;5032162;28;20037;-76
2022/06/15 03:42:39;;;;;;;2.92;1.88;;;;;;;11.31;96.58;99335.66;5029497;28;20515;-77
2022/06/15 03:45:06;;;;;;;3.90;2.00;;;;;;;11.36;96.62;99335.50;5023823;28;20033;-76
2022/06/15 03:47:35;;;;;;;3.75;2.05;;;;;;;11.36;95.91;99338.25;5027104;28;20148;-76
2022/06/15 03:50:00;;;;;;;3.05;2.00;;;;;;;11.38;96.45;99338.72;5049320;28;20044;-75
2022/06/15 03:52:27;;;;;;;2.55;2.28;;;;;;;11.36;96.33;99339.03;5002702;28;20166;-76
2022/06/15 03:55:31;;;;;;;3.13;1.92;;;;;;;11.34;96.67;99340.50;5030249;28;20179;-75
2022/06/15 03:57:57;;;;;;;2.90;1.80;;;;;;;11.35;96.27;99339.38;5050232;28;20055;-76
2022/06/15 04:00:24;;;;;;;2.72;1.77;;;;;;;11.32;95.75;99337.25;5036562;28;20058;-76
2022/06/15 04:02:52;;;;;;;3.45;1.52;;;;;;;11.32;95.24;99338.06;5052346;28;20036;-75
2022/06/15 04:05:44;;;;;;;3.17;1.77;;;;;;;11.31;95.64;99341.13;5017513;28;20479;-76
2022/06/15 04:08:34;;;;;;;1.77;1.40;;;;;;;11.31;96.02;99335.66;4998574;28;20045;-76
2022/06/15 04:11:07;;;;;;;2.22;1.63;;;;;;;11.30;95.36;99336.78;5016386;28;20120;-76
2022/06/15 04:13:35;;;;;;;2.58;2.15;;;;;;;11.30;95.21;99336.78;5034757;28;20041;-77
2022/06/15 04:16:04;;;;;;;2.00;1.77;;;;;;;11.33;94.92;99339.69;5015206;28;20064;-75
2022/06/15 04:18:31;;;;;;;1.70;1.52;;;;;;;11.34;95.38;99337.75;5031670;28;20032;-76
2022/06/15 04:21:03;;;;;;;1.95;1.30;;;;;;;11.34;94.63;99329.50;5033483;28;20040;-74
2022/06/15 04:23:28;;;;;;;1.23;1.13;;;;;;;11.34;94.86;99332.25;5033412;28;20048;-76
2022/06/15 04:25:58;;;;;;;3.20;1.60;;;;;;;11.33;95.57;99325.94;5033105;28;20041;-76
2022/06/15 04:28:29;;;;;;;2.65;1.55;;;;;;;11.34;95.53;99326.75;5020329;28;20140;-76
2022/06/15 04:30:59;;;;;;;2.22;1.50;;;;;;;11.38;95.41;99325.81;5003867;28;20369;-76
2022/06/15 04:33:30;;;;;;;1.80;1.58;;;;;;;11.43;94.75;99322.09;5016437;28;20484;-76
2022/06/15 04:35:58;;;;;;;2.53;1.73;;;;;;;11.44;95.02;99320.97;5014695;28;20099;-76
2022/06/15 04:38:24;;;;;;;1.70;1.55;;;;;;;11.45;94.80;99314.34;5069730;28;20067;-75
2022/06/15 04:40:59;;;;;;;2.42;1.88;;;;;;;11.46;94.99;99310.50;5007935;28;20073;-75
2022/06/15 04:43:26;;;;;;;1.40;1.20;;;;;;;11.42;94.20;99307.56;5031198;28;20076;-75
2022/06/15 04:45:52;;;;;;;2.65;1.42;;;;;;;11.43;94.43;99305.59;5030974;28;20083;-75
2022/06/15 04:48:23;;;;;;;4.57;1.70;;;;;;;11.51;95.16;99304.84;5013509;28;20041;-75
2022/06/15 04:50:49;;;;;;;7.38;1.90;;;;;;;11.50;94.37;99299.66;5034591;28;20040;-75
2022/06/15 04:53:15;;;;;;;4.05;1.80;;;;;;;11.53;94.69;99296.28;5033933;28;20041;-75
2022/06/15 04:55:42;;;;;;;3.67;1.50;;;;;;;11.59;94.39;99298.53;5033937;28;20048;-75
2022/06/15 04:58:08;;;;;;;2.65;1.40;;;;;;;11.66;94.44;99301.63;5017691;28;20084;-75
2022/06/15 05:00:40;;;;;;;2.42;1.70;;;;;;;11.69;94.22;99298.25;5029678;28;20037;-75
2022/06/15 05:03:07;;;;;;;3.28;1.77;;;;;;;11.72;95.07;99292.09;5000900;28;20052;-75
2022/06/15 05:05:33;;;;;;;3.97;2.28;;;;;;;11.78;94.43;99298.25;5034012;28;20495;-75
2022/06/15 05:08:03;;;;;;;3.40;1.77;;;;;;;11.83;94.47;99287.13;5017287;28;20048;-75
2022/06/15 05:10:29;;;;;;;4.25;2.50;;;;;;;11.84;94.73;99285.19;5032354;28;20045;-75
2022/06/15 05:12:55;;;;;;;5.05;2.92;;;;;;;11.87;94.15;99284.56;5054797;28;20032;-76
2022/06/15 05:15:24;;;;;;;7.13;2.25;;;;;;;11.85;94.07;99282.13;5053461;28;20048;-76
2022/06/15 05:17:54;;;;;;;2.38;2.03;;;;;;;11.88;93.83;99291.66;5037824;28;20049;-76
2022/06/15 05:20:20;;;;;;;3.42;1.73;;;;;;;11.89;93.72;99291.34;5070474;28;20048;-76
2022/06/15 05:22:51;;;;;;;3.05;2.15;;;;;;;11.89;94.07;99283.09;5053358;28;20037;-76
2022/06/15 05:25:18;;;;;;;2.10;1.85;;;;;;;11.92;93.57;99284.38;5017372;28;20045;-76
2022/06/15 05:27:46;;;;;;;5.13;1.90;;;;;;;11.96;93.44;99283.41;5017561;28;20182;-75
2022/06/15 05:30:13;;;;;;;4.53;1.95;;;;;;;11.99;93.28;99282.78;5032893;28;20060;-75
2022/06/15 05:32:39;;;;;;;3.67;2.45;;;;;;;12.01;92.99;99274.22;5025122;28;20438;-75
2022/06/15 05:35:06;;;;;;;2.75;1.70;;;;;;;12.03;92.62;99281.00;5053000;28;20071;-75
2022/06/15 05:37:32;;;;;;;2.35;1.42;;;;;;;12.06;92.87;99282.28;5053156;28;20132;-76
2022/06/15 05:39:59;;;;;;;1.60;1.50;;;;;;;12.08;93.15;99269.81;5053405;28;20392;-76
2022/06/15 05:42:28;;;;;;;1.63;1.50;;;;;;;12.11;93.15;99268.38;5037548;28;20087;-77
2022/06/15 05:45:01;;;;;;;1.70;1.33;;;;;;;12.13;92.34;99266.09;5049088;28;20041;-77
2022/06/15 05:47:30;;;;;;;2.22;1.50;;;;;;;12.18;92.45;99268.69;5029716;28;20033;-77
2022/06/15 05:50:11;;;;;;;2.38;1.60;;;;;;;12.19;92.92;99261.25;5029802;28;20037;-76
2022/06/15 05:52:44;;;;;;;2.03;1.50;;;;;;;12.21;92.65;99267.22;5014413;28;20099;-76
2022/06/15 05:55:10;;;;;;;1.80;1.60;;;;;;;12.24;91.88;99267.38;5031269;28;20128;-76
2022/06/15 05:57:37;;;;;;;2.03;1.75;;;;;;;12.29;91.98;99256.22;5029664;28;20635;-75
2022/06/15 06:00:05;;;;;;;2.53;1.58;;;;;;;12.33;91.92;99254.44;5043459;28;20048;-75
2022/06/15 06:02:40;;;;;;;3.33;1.55;;;;;;;12.44;92.14;99262.34;5042320;28;20161;-75
2022/06/15 06:05:06;;;;;;;3.45;1.73;;;;;;;12.55;92.34;99253.41;5052740;28;20093;-76
2022/06/15 06:07:32;;;;;;;3.20;2.05;;;;;;;12.59;92.30;99254.38;5070437;28;20111;-75
2022/06/15 06:09:57;;;;;;;2.05;1.58;;;;;;;12.61;92.45;99248.53;5052728;28;20052;-76
2022/06/15 06:12:23;;;;;;;1.77;1.50;;;;;;;12.64;92.14;99251.44;5050701;28;20507;-76
2022/06/15 06:14:51;;;;;;;2.13;1.92;;;;;;;12.77;92.49;99244.09;5032899;28;20039;-75
2022/06/15 06:17:17;;;;;;;3.47;2.37;;;;;;;12.85;92.52;99254.28;5033012;28;20090;-76
2022/06/15 06:19:42;;;;;;;2.92;2.42;;;;;;;12.93;92.23;99250.69;5049005;28;20450;-75
2022/06/15 06:22:08;;;;;;;2.17;1.90;;;;;;;13.07;91.55;99253.22;5048865;28;20470;-77
2022/06/15 06:24:34;;;;;;;3.17;2.22;;;;;;;13.17;91.64;99257.53;5015759;28;20055;-76
2022/06/15 06:27:01;;;;;;;5.60;2.22;;;;;;;13.24;91.69;99263.38;5032454;28;20029;-75
2022/06/15 06:29:28;;;;;;;3.30;2.30;;;;;;;13.27;91.92;99260.75;5050239;28;20047;-75
2022/06/15 06:31:54;;;;;;;3.63;2.05;;;;;;;13.27;91.33;99260.75;5035326;28;20048;-76
2022/06/15 06:34:19;;;;;;;2.55;2.28;;;;;;;13.30;90.79;99256.53;5037035;28;20495;-76
2022/06/15 06:36:45;;;;;;;2.78;2.38;;;;;;;13.32;90.10;99248.72;5054879;28;20044;-76
2022/06/15 06:39:18;;;;;;;4.03;2.95;;;;;;;13.43;90.09;99246.41;5035489;28;20495;-76
2022/06/15 06:41:44;;;;;;;3.55;2.53;;;;;;;13.51;90.07;99246.34;5036668;28;20041;-76
2022/06/15 06:44:11;;;;;;;3.53;2.40;;;;;;;13.65;90.07;99242.50;5036568;28;20036;-75
2022/06/15 06:46:37;;;;;;;3.17;2.35;;;;;;;13.80;89.79;99244.69;5036275;28;20127;-75
2022/06/15 06:49:07;;;;;;;2.58;2.38;;;;;;;13.93;89.05;99243.59;5046162;28;20095;-75
2022/06/15 06:51:35;;;;;;;4.68;2.47;;;;;;;14.05;89.22;99235.34;5028380;28;20043;-75
2022/06/15 06:54:01;;;;;;;2.93;2.47;;;;;;;14.11;88.83;99236.78;5023088;28;20045;-75
2022/06/15 06:56:27;;;;;;;5.25;2.45;;;;;;;14.19;88.09;99235.06;5034464;28;20041;-76
2022/06/15 06:58:52;;;;;;;3.30;2.85;;;;;;;14.22;87.50;99244.63;5034136;28;20136;-76
2022/06/15 07:01:18;;;;;;;4.65;2.58;;;;;;;14.28;86.67;99243.28;5034429;28;20045;-76
2022/06/15 07:03:44;;;;;;;2.83;2.08;;;;;;;14.35;86.48;99243.53;5016524;28;20128;-75
2022/06/15 07:06:10;;;;;;;3.83;2.55;;;;;;;14.45;86.02;99240.38;5034339;28;20045;-75
2022/06/15 07:08:39;;;;;;;4.05;3.20;;;;;;;14.47;85.91;99244.41;5036062;28;20048;-76
2022/06/15 07:11:15;;;;;;;2.90;2.60;;;;;;;14.48;85.26;99242.44;5036226;28;20087;-76
2022/06/15 07:13:41;;;;;;;5.05;2.92;;;;;;;14.43;84.70;99237.13;5053978;28;20087;-76
2022/06/15 07:16:09;;;;;;;3.50;2.85;;;;;;;14.41;85.25;99247.72;5054048;28;20045;-76
2022/06/15 07:18:34;;;;;;;4.60;3.25;;;;;;;14.34;84.12;99241.91;5051705;28;20052;-75
2022/06/15 07:21:03;;;;;;;3.65;3.08;;;;;;;14.26;83.52;99243.63;5035578;28;20041;-76
2022/06/15 07:23:28;;;;;;;3.33;2.53;;;;;;;14.26;83.80;99251.09;5051361;28;20432;-76
2022/06/15 07:25:54;;;;;;;4.57;3.33;;;;;;;14.44;83.04;99249.81;5024208;28;20045;-76
2022/06/15 07:28:20;;;;;;;4.82;3.17;;;;;;;14.60;83.02;99259.06;5064867;28;20040;-76
2022/06/15 07:30:45;;;;;;;3.92;3.33;;;;;;;14.74;82.37;99256.75;5073502;28;20460;-76
2022/06/15 07:33:11;;;;;;;3.90;3.45;;;;;;;14.74;81.76;99256.75;5066482;28;20480;-76
2022/06/15 07:35:38;;;;;;;4.78;3.35;;;;;;;14.87;81.85;99267.84;5028980;28;20044;-76
2022/06/15 07:38:05;;;;;;;4.30;3.13;;;;;;;15.10;80.90;99274.56;5025843;28;20132;-76
2022/06/15 07:40:30;;;;;;;5.50;3.95;;;;;;;15.27;80.31;99267.97;5068989;28;20105;-76
2022/06/15 07:42:56;;;;;;;5.93;2.90;;;;;;;15.28;79.39;99267.66;5050225;28;20033;-77
2022/06/15 07:45:24;;;;;;;5.32;3.60;;;;;;;15.38;79.08;99260.84;5042342;28;20095;-77
2022/06/15 07:50:37;;;;;;;5.65;3.38;;;;;;;15.44;78.26;99273.25;5030582;28;20045;-77
2022/06/15 07:53:04;;;;;;;5.57;3.70;;;;;;;15.58;78.23;99278.44;5053069;28;20072;-77
2022/06/15 07:55:33;;;;;;;5.75;4.07;;;;;;;15.53;77.38;99293.31;5048803;28;20038;-77
2022/06/15 07:58:00;;;;;;;8.07;5.30;;;;;;;15.51;77.63;99286.50;5032806;28;20049;-76
2022/06/15 08:00:27;;;;;;;5.43;4.15;;;;;;;15.36;77.83;99285.25;5015344;28;20052;-76
2022/06/15 08:02:53;;;;;;;5.80;4.35;;;;;;;15.23;77.29;99291.91;5033085;28;20095;-76
2022/06/15 08:05:19;;;;;;;5.68;4.28;;;;;;;15.19;77.73;99293.78;4999161;28;20041;-77
2022/06/15 08:07:46;;;;;;;6.88;5.13;;;;;;;15.23;77.72;99295.50;5033928;28;20039;-78
2022/06/15 08:10:14;;;;;;;10.18;4.85;;;;;;;15.22;77.26;99293.06;5041777;28;20044;-77
2022/06/15 08:12:41;;;;;;;5.22;4.30;;;;;;;15.22;77.04;99298.59;5018804;28;20037;-76
2022/06/15 08:15:07;;;;;;;4.57;3.83;;;;;;;15.25;77.07;99303.44;5034996;28;20407;-76
2022/06/15 08:17:40;;;;;;;7.05;4.68;;;;;;;15.41;76.63;99301.59;5034722;28;20115;-76
2022/06/15 08:20:29;;;;;;;5.88;4.25;;;;;;;15.46;75.94;99308.88;5035190;28;20411;-76
2022/06/15 08:22:57;;;;;;;6.28;4.43;;;;;;;15.54;76.23;99310.69;5025521;28;20059;-75
2022/06/15 08:25:29;;;;;;;4.87;4.13;;;;;;;15.52;76.47;99313.00;5015109;28;20033;-77
2022/06/15 08:27:55;;;;;;;4.10;3.35;;;;;;;15.45;77.44;99308.06;5015375;28;20128;-76
2022/06/15 08:30:21;;;;;;;4.00;3.50;;;;;;;15.54;77.21;99313.47;5025260;28;20124;-75
2022/06/15 08:32:48;;;;;;;4.93;3.33;;;;;;;15.58;77.10;99317.94;5052864;28;20036;-76
2022/06/15 08:35:14;;;;;;;4.93;3.72;;;;;;;15.58;76.90;99323.47;5052167;28;20041;-76
2022/06/15 08:37:40;;;;;;;3.42;2.97;;;;;;;15.50;77.73;99320.84;5052476;28;20048;-76
2022/06/15 08:40:07;;;;;;;8.70;3.08;;;;;;;15.46;77.79;99325.47;5048449;28;20052;-74
2022/06/15 08:42:53;;;;;;;5.20;2.55;;;;;;;15.35;78.41;99319.56;5048004;28;20320;-75
2022/06/15 08:45:26;;;;;;;3.35;2.33;;;;;;;15.12;79.18;99327.50;5021685;28;20054;-76
2022/06/15 08:48:07;;;;;;;3.13;2.08;;;;;;;14.93;79.39;99332.78;5034578;28;20067;-75
2022/06/15 08:50:39;;;;;;;3.70;2.20;;;;;;;14.80;79.93;99340.22;5051910;28;20041;-75
2022/06/15 08:53:07;;;;;;;3.00;2.13;;;;;;;14.78;80.53;99346.06;5034718;28;20069;-75
2022/06/15 08:55:42;;;;;;;1.85;1.55;;;;;;;14.78;80.78;99346.06;5034189;28;20150;-75
2022/06/15 08:58:22;;;;;;;3.33;2.30;;;;;;;14.56;80.26;99349.19;5051471;28;20037;-75
2022/06/15 09:00:49;;;;;;;2.35;1.95;;;;;;;14.58;81.05;99351.63;5015485;28;20419;-75
2022/06/15 09:03:24;;;;;;;2.17;1.75;;;;;;;14.63;80.65;99355.00;5016424;28;20536;-75
2022/06/15 09:06:11;;;;;;;3.60;2.80;;;;;;;14.54;80.82;99358.97;5014617;28;20051;-75
2022/06/15 09:08:52;;;;;;;2.80;2.55;;;;;;;14.60;81.37;99360.41;5031492;28;20144;-75
2022/06/15 09:15:26;;;;;;;4.00;2.25;;;;;;;14.88;80.74;99360.59;5010434;28;20053;-75
2022/06/15 09:17:54;;;;;;;3.45;2.38;;;;;;;14.83;81.16;99369.91;5017132;28;20039;-74
2022/06/15 09:20:25;;;;;;;5.85;2.72;;;;;;;14.89;80.87;99367.72;5051177;28;20037;-75
2022/06/15 09:22:55;;;;;;;5.03;2.72;;;;;;;14.97;80.76;99370.41;5033407;28;20045;-75
2022/06/15 09:25:35;;;;;;;3.65;2.83;;;;;;;15.08;80.57;99374.34;5028549;28;20037;-75
2022/06/15 09:28:09;;;;;;;5.43;2.72;;;;;;;14.95;80.51;99369.13;4999577;28;20120;-74
2022/06/15 09:30:38;;;;;;;2.92;2.63;;;;;;;14.94;81.25;99379.38;5038262;28;20049;-74
2022/06/15 09:33:29;;;;;;;5.03;3.00;;;;;;;14.86;82.26;99382.22;5029240;28;20420;-75
2022/06/15 09:36:02;;;;;;;5.25;3.25;;;;;;;14.74;82.84;99386.53;5012628;28;20087;-74
2022/06/15 09:38:32;;;;;;;4.15;2.58;;;;;;;14.80;83.07;99378.88;5029331;28;20083;-75
2022/06/15 09:41:03;;;;;;;3.30;2.70;;;;;;;14.93;83.68;99368.69;5026929;28;20094;-75
2022/06/15 09:43:35;;;;;;;3.58;2.58;;;;;;;15.07;83.93;99371.91;5020791;28;20623;-74
2022/06/15 09:46:12;;;;;;;3.15;2.83;;;;;;;15.15;83.87;99381.28;5049605;28;20040;-75
2022/06/15 09:48:53;;;;;;;3.85;2.88;;;;;;;15.22;83.27;99371.25;5019849;28;20081;-73
2022/06/15 09:51:35;;;;;;;4.18;3.10;;;;;;;15.33;82.36;99377.16;5002304;28;20048;-74
2022/06/15 09:54:12;;;;;;;6.45;3.90;;;;;;;15.41;82.01;99380.94;5044686;28;20481;-75
2022/06/15 09:56:38;;;;;;;4.63;3.65;;;;;;;15.37;81.35;99378.88;5048881;28;20566;-75
2022/06/15 09:59:11;;;;;;;4.57;3.30;;;;;;;15.52;80.63;99382.13;5032706;28;20140;-75
2022/06/15 10:01:41;;;;;;;4.13;3.47;;;;;;;15.60;79.97;99384.00;5032450;28;20037;-75
2022/06/15 10:04:18;;;;;;;4.20;3.30;;;;;;;15.59;79.53;99377.66;5028757;28;20053;-74
2022/06/15 10:06:54;;;;;;;3.55;3.22;;;;;;;15.67;79.65;99384.25;5007273;28;20045;-75
2022/06/15 10:09:26;;;;;;;4.45;3.55;;;;;;;15.85;79.32;99382.03;5032704;28;20053;-75
2022/06/15 10:11:56;;;;;;;3.70;3.25;;;;;;;15.95;78.70;99385.13;5032768;28;20056;-75
2022/06/15 10:14:23;;;;;;;3.42;3.08;;;;;;;16.14;77.64;99389.25;5028553;28;20063;-75
2022/06/15 10:17:18;;;;;;;4.03;2.80;;;;;;;16.26;77.00;99392.00;5020759;28;20053;-75
2022/06/15 10:19:47;;;;;;;5.10;3.30;;;;;;;16.32;75.75;99390.63;5042570;28;20048;-75
2022/06/15 10:22:22;;;;;;;4.43;3.33;;;;;;;16.33;75.29;99397.78;5030340;28;20048;-75
2022/06/15 10:24:49;;;;;;;4.05;3.15;;;;;;;16.45;74.46;99397.72;5013102;28;20045;-75
2022/06/15 10:27:17;;;;;;;7.35;3.35;;;;;;;16.59;73.84;99398.16;5045481;28;20043;-75
2022/06/15 10:29:44;;;;;;;;;;;;;;;16.63;73.91;99397.44;5029373;28;20045;-75
2022/06/15 10:32:09;;;;;;;5.25;3.65;;;;;;;16.74;74.30;99395.81;5027778;28;20075;-76
2022/06/15 10:34:47;;;;;;;4.68;3.35;;;;;;;16.71;74.55;99391.78;5046647;28;20203;-75
2022/06/15 10:37:23;;;;;;;5.85;3.80;;;;;;;16.72;75.26;99395.38;5036116;28;20052;-75
2022/06/15 10:39:51;;;;;;;5.53;3.72;;;;;;;16.68;74.75;99394.47;5032284;28;20660;-75
2022/06/15 10:42:22;;;;;;;4.57;3.28;;;;;;;16.76;74.60;99397.06;5023934;28;20099;-76
2022/06/15 10:44:52;;;;;;;5.90;3.70;;;;;;;16.81;74.12;99399.59;5025518;28;20036;-76
2022/06/15 10:47:24;;;;;;;4.25;3.10;;;;;;;16.82;74.07;99403.16;5012703;28;20041;-75
2022/06/15 10:49:54;;;;;;;4.47;3.47;;;;;;;17.01;73.89;99410.81;5032007;28;20087;-75
2022/06/15 10:52:38;;;;;;;4.05;3.17;;;;;;;17.09;73.02;99404.31;5027212;28;20029;-75
2022/06/15 11:04:17;;;;;;;9.85;4.00;;;;;;;16.88;72.88;99432.25;5043130;28;20046;-75
2022/06/15 11:06:49;;;;;;;5.63;3.53;;;;;;;16.81;73.02;99420.94;5041605;28;20068;-74
2022/06/15 11:09:23;;;;;;;3.45;3.08;;;;;;;16.71;72.88;99427.81;5023969;28;20714;-75
2022/06/15 11:11:50;;;;;;;4.70;3.60;;;;;;;16.69;73.01;99426.53;5031651;28;20052;-75
2022/06/15 11:14:24;;;;;;;4.55;3.00;;;;;;;16.69;73.16;99427.34;5030768;28;20504;-75
2022/06/15 11:19:39;;;;;;;5.65;3.75;;;;;;;16.78;71.36;99429.97;5034940;28;20034;-75
2022/06/15 11:22:14;;;;;;;4.82;3.30;;;;;;;16.83;71.51;99432.47;5015971;28;20037;-76
2022/06/15 11:24:47;;;;;;;4.25;2.92;;;;;;;17.00;71.01;99436.91;5039899;28;20041;-76
2022/06/15 11:27:24;;;;;;;5.30;3.38;;;;;;;17.08;71.05;99442.31;5018894;28;20032;-73
2022/06/15 11:29:53;;;;;;;4.80;3.58;;;;;;;17.04;71.02;99438.63;5043675;28;20045;-76
2022/06/15 11:32:45;;;;;;;4.78;3.60;;;;;;;17.06;71.23;99436.31;5047305;28;20045;-76
2022/06/15 11:35:18;;;;;;;4.78;3.47;;;;;;;17.07;71.18;99442.66;5035247;28;20048;-75
2022/06/15 11:37:58;;;;;;;4.53;3.55;;;;;;;17.09;70.79;99448.66;5035665;28;20144;-75
2022/06/15 11:40:30;;;;;;;4.90;3.47;;;;;;;17.18;70.62;99449.28;5028736;28;20037;-74
2022/06/15 11:42:56;;;;;;;5.25;4.32;;;;;;;17.21;70.41;99448.59;5034825;28;20080;-76
2022/06/15 11:45:41;;;;;;;5.78;3.78;;;;;;;17.16;70.45;99446.88;5033528;28;20132;-75
2022/06/15 11:48:33;;;;;;;6.05;4.18;;;;;;;17.07;70.32;99446.25;5024244;28;20076;-75
2022/06/15 11:51:26;;;;;;;4.07;3.25;;;;;;;17.10;69.77;99444.72;5020547;28;20132;-76
2022/06/15 11:54:01;;;;;;;5.28;3.83;;;;;;;17.18;69.80;99450.13;5050972;28;20035;-75
2022/06/15 11:56:31;;;;;;;4.57;4.10;;;;;;;17.14;69.86;99451.16;5049176;28;20052;-75
2022/06/15 11:59:16;;;;;;;5.10;3.67;;;;;;;17.14;70.34;99462.25;5022722;28;20061;-75
2022/06/15 12:01:59;;;;;;;4.88;3.47;;;;;;;17.17;70.22;99469.84;4999530;28;20049;-76
2022/06/15 12:04:46;;;;;;;6.00;4.53;;;;;;;17.16;70.01;99457.97;4998941;28;20164;-75
2022/06/15 12:07:56;;;;;;;5.65;4.63;;;;;;;17.05;70.98;99472.72;5015625;28;20515;-74
2022/06/15 12:10:42;;;;;;;6.07;4.28;;;;;;;16.96;71.53;99478.38;4996891;28;20057;-76
2022/06/15 12:13:17;;;;;;;6.20;4.30;;;;;;;16.85;72.15;99474.50;5015276;28;20420;-76